sensor_id;sensor_type;location;lat;lon;timestamp;P1;durP1;ratioP1;P2;durP2;ratioP2
4397;SDS011;2213;49.720;7.296;2023-03-01T00:00:42;8.00;;;4.77;;
4397;SDS011;2213;49.720;7.296;2023-03-01T00:03:13;4.97;;;3.77;;
4397;SDS011;2213;49.720;7.296;2023-03-01T00:05:43;7.63;;;4.10;;
4397;SDS011;2213;49.720;7.296;2023-03-01T00:08:15;8.23;;;4.47;;
4397;SDS011;2213;49.720;7.296;2023-03-01T00:10:44;9.63;;;4.67;;
4397;SDS011;2213;49.720;7.296;2023-03-01T00:13:13;6.57;;;4.27;;
4397;SDS011;2213;49.720;7.296;2023-03-01T00:15:43;8.80;;;4.90;;
4397;SDS011;2213;49.720;7.296;2023-03-01T00:18:13;10.00;;;4.03;;
4397;SDS011;2213;49.720;7.296;2023-03-01T00:20:41;11.37;;;4.10;;
4397;SDS011;2213;49.720;7.296;2023-03-01T00:23:18;14.53;;;4.00;;
4397;SDS011;2213;49.720;7.296;2023-03-01T00:25:49;5.80;;;3.63;;
4397;SDS011;2213;49.720;7.296;2023-03-01T00:28:19;7.30;;;4.27;;
4397;SDS011;2213;49.720;7.296;2023-03-01T00:30:50;7.47;;;3.93;;
4397;SDS011;2213;49.720;7.296;2023-03-01T00:33:19;11.57;;;4.30;;
4397;SDS011;2213;49.720;7.296;2023-03-01T00:35:48;7.40;;;4.20;;
4397;SDS011;2213;49.720;7.296;2023-03-01T00:38:18;9.03;;;4.20;;
4397;SDS011;2213;49.720;7.296;2023-03-01T00:40:48;5.37;;;3.43;;
4397;SDS011;2213;49.720;7.296;2023-03-01T00:43:18;5.63;;;4.33;;
4397;SDS011;2213;49.720;7.296;2023-03-01T00:45:48;6.17;;;3.93;;
4397;SDS011;2213;49.720;7.296;2023-03-01T00:48:17;6.17;;;4.07;;
4397;SDS011;2213;49.720;7.296;2023-03-01T00:50:46;6.03;;;4.23;;
4397;SDS011;2213;49.720;7.296;2023-03-01T00:53:15;7.13;;;3.70;;
4397;SDS011;2213;49.720;7.296;2023-03-01T00:55:45;6.23;;;3.60;;
4397;SDS011;2213;49.720;7.296;2023-03-01T00:58:14;8.63;;;3.40;;
4397;SDS011;2213;49.720;7.296;2023-03-01T01:00:43;10.10;;;3.50;;
4397;SDS011;2213;49.720;7.296;2023-03-01T01:03:13;5.20;;;3.60;;
4397;SDS011;2213;49.720;7.296;2023-03-01T01:05:42;3.70;;;3.20;;
4397;SDS011;2213;49.720;7.296;2023-03-01T01:08:11;8.27;;;3.63;;
4397;SDS011;2213;49.720;7.296;2023-03-01T01:10:40;9.67;;;4.53;;
4397;SDS011;2213;49.720;7.296;2023-03-01T01:13:14;8.27;;;3.57;;
4397;SDS011;2213;49.720;7.296;2023-03-01T01:15:44;4.83;;;3.30;;
4397;SDS011;2213;49.720;7.296;2023-03-01T01:18:13;5.67;;;3.43;;
4397;SDS011;2213;49.720;7.296;2023-03-01T01:20:43;7.10;;;3.90;;
4397;SDS011;2213;49.720;7.296;2023-03-01T01:23:13;5.80;;;3.30;;
4397;SDS011;2213;49.720;7.296;2023-03-01T01:25:43;4.03;;;3.10;;
4397;SDS011;2213;49.720;7.296;2023-03-01T01:28:13;7.67;;;3.87;;
4397;SDS011;2213;49.720;7.296;2023-03-01T01:30:43;5.87;;;4.20;;
4397;SDS011;2213;49.720;7.296;2023-03-01T01:33:13;4.40;;;3.20;;
4397;SDS011;2213;49.720;7.296;2023-03-01T01:35:44;6.90;;;3.60;;
4397;SDS011;2213;49.720;7.296;2023-03-01T01:38:13;4.67;;;3.37;;
4397;SDS011;2213;49.720;7.296;2023-03-01T01:40:44;7.33;;;4.23;;
4397;SDS011;2213;49.720;7.296;2023-03-01T01:43:17;5.30;;;4.10;;
4397;SDS011;2213;49.720;7.296;2023-03-01T01:45:50;5.80;;;3.73;;
4397;SDS011;2213;49.720;7.296;2023-03-01T01:48:24;4.87;;;3.60;;
4397;SDS011;2213;49.720;7.296;2023-03-01T01:51:08;7.00;;;3.50;;
4397;SDS011;2213;49.720;7.296;2023-03-01T01:53:43;5.70;;;4.07;;
4397;SDS011;2213;49.720;7.296;2023-03-01T01:56:19;8.90;;;4.93;;
4397;SDS011;2213;49.720;7.296;2023-03-01T01:58:54;6.20;;;4.33;;
4397;SDS011;2213;49.720;7.296;2023-03-01T02:01:24;5.30;;;3.97;;
4397;SDS011;2213;49.720;7.296;2023-03-01T02:03:54;7.90;;;3.67;;
4397;SDS011;2213;49.720;7.296;2023-03-01T02:06:26;5.60;;;3.93;;
4397;SDS011;2213;49.720;7.296;2023-03-01T02:09:02;6.83;;;4.00;;
4397;SDS011;2213;49.720;7.296;2023-03-01T02:11:39;7.37;;;4.23;;
4397;SDS011;2213;49.720;7.296;2023-03-01T02:14:12;5.80;;;4.43;;
4397;SDS011;2213;49.720;7.296;2023-03-01T02:16:42;6.37;;;4.27;;
4397;SDS011;2213;49.720;7.296;2023-03-01T02:19:13;7.67;;;3.97;;
4397;SDS011;2213;49.720;7.296;2023-03-01T02:21:59;6.30;;;4.23;;
4397;SDS011;2213;49.720;7.296;2023-03-01T02:24:43;6.10;;;4.27;;
4397;SDS011;2213;49.720;7.296;2023-03-01T02:27:30;6.97;;;4.60;;
4397;SDS011;2213;49.720;7.296;2023-03-01T02:30:10;7.20;;;3.90;;
4397;SDS011;2213;49.720;7.296;2023-03-01T02:32:41;8.50;;;4.40;;
4397;SDS011;2213;49.720;7.296;2023-03-01T02:35:12;6.97;;;3.80;;
4397;SDS011;2213;49.720;7.296;2023-03-01T02:37:46;8.57;;;3.70;;
4397;SDS011;2213;49.720;7.296;2023-03-01T02:40:17;7.10;;;4.10;;
4397;SDS011;2213;49.720;7.296;2023-03-01T02:42:49;5.83;;;3.90;;
4397;SDS011;2213;49.720;7.296;2023-03-01T02:45:26;6.40;;;5.00;;
4397;SDS011;2213;49.720;7.296;2023-03-01T02:47:55;12.50;;;4.10;;
4397;SDS011;2213;49.720;7.296;2023-03-01T02:50:34;7.70;;;4.33;;
4397;SDS011;2213;49.720;7.296;2023-03-01T02:53:27;9.30;;;4.77;;
4397;SDS011;2213;49.720;7.296;2023-03-01T02:56:10;10.20;;;4.80;;
4397;SDS011;2213;49.720;7.296;2023-03-01T02:58:40;6.03;;;4.23;;
4397;SDS011;2213;49.720;7.296;2023-03-01T03:01:15;8.37;;;4.63;;
4397;SDS011;2213;49.720;7.296;2023-03-01T03:03:45;8.60;;;4.40;;
4397;SDS011;2213;49.720;7.296;2023-03-01T03:06:15;6.80;;;4.70;;
4397;SDS011;2213;49.720;7.296;2023-03-01T03:08:45;6.30;;;3.67;;
4397;SDS011;2213;49.720;7.296;2023-03-01T03:11:15;8.43;;;4.90;;
4397;SDS011;2213;49.720;7.296;2023-03-01T03:13:45;7.30;;;4.03;;
4397;SDS011;2213;49.720;7.296;2023-03-01T03:16:16;8.03;;;4.10;;
4397;SDS011;2213;49.720;7.296;2023-03-01T03:18:46;5.27;;;4.30;;
4397;SDS011;2213;49.720;7.296;2023-03-01T03:21:16;12.73;;;4.80;;
4397;SDS011;2213;49.720;7.296;2023-03-01T03:23:45;7.23;;;4.83;;
4397;SDS011;2213;49.720;7.296;2023-03-01T03:26:15;5.87;;;4.57;;
4397;SDS011;2213;49.720;7.296;2023-03-01T03:28:45;7.23;;;5.20;;
4397;SDS011;2213;49.720;7.296;2023-03-01T03:31:17;6.80;;;4.40;;
4397;SDS011;2213;49.720;7.296;2023-03-01T03:33:47;14.30;;;4.67;;
4397;SDS011;2213;49.720;7.296;2023-03-01T03:36:17;6.17;;;4.77;;
4397;SDS011;2213;49.720;7.296;2023-03-01T03:38:47;8.13;;;4.70;;
4397;SDS011;2213;49.720;7.296;2023-03-01T03:41:16;10.87;;;5.03;;
4397;SDS011;2213;49.720;7.296;2023-03-01T03:43:46;14.73;;;5.50;;
4397;SDS011;2213;49.720;7.296;2023-03-01T03:46:15;10.83;;;5.17;;
4397;SDS011;2213;49.720;7.296;2023-03-01T03:48:46;14.70;;;5.70;;
4397;SDS011;2213;49.720;7.296;2023-03-01T03:51:17;8.47;;;4.90;;
4397;SDS011;2213;49.720;7.296;2023-03-01T03:53:46;7.33;;;4.63;;
4397;SDS011;2213;49.720;7.296;2023-03-01T03:56:16;11.03;;;4.77;;
4397;SDS011;2213;49.720;7.296;2023-03-01T03:58:46;8.73;;;5.40;;
4397;SDS011;2213;49.720;7.296;2023-03-01T04:01:16;8.00;;;5.47;;
4397;SDS011;2213;49.720;7.296;2023-03-01T04:03:47;16.13;;;5.10;;
4397;SDS011;2213;49.720;7.296;2023-03-01T04:06:21;10.67;;;4.90;;
4397;SDS011;2213;49.720;7.296;2023-03-01T04:08:51;15.70;;;6.60;;
4397;SDS011;2213;49.720;7.296;2023-03-01T04:11:25;17.57;;;4.93;;
4397;SDS011;2213;49.720;7.296;2023-03-01T04:13:57;10.93;;;5.70;;
4397;SDS011;2213;49.720;7.296;2023-03-01T04:16:28;17.20;;;7.37;;
4397;SDS011;2213;49.720;7.296;2023-03-01T04:18:59;6.37;;;4.13;;
4397;SDS011;2213;49.720;7.296;2023-03-01T04:21:28;7.23;;;4.60;;
4397;SDS011;2213;49.720;7.296;2023-03-01T04:23:58;7.33;;;4.27;;
4397;SDS011;2213;49.720;7.296;2023-03-01T04:26:30;9.90;;;5.60;;
4397;SDS011;2213;49.720;7.296;2023-03-01T04:29:00;10.80;;;4.70;;
4397;SDS011;2213;49.720;7.296;2023-03-01T04:31:32;8.40;;;4.50;;
4397;SDS011;2213;49.720;7.296;2023-03-01T04:34:01;7.57;;;5.40;;
4397;SDS011;2213;49.720;7.296;2023-03-01T04:36:31;8.00;;;5.53;;
4397;SDS011;2213;49.720;7.296;2023-03-01T04:39:04;12.80;;;5.50;;
4397;SDS011;2213;49.720;7.296;2023-03-01T04:41:39;9.30;;;5.00;;
4397;SDS011;2213;49.720;7.296;2023-03-01T04:44:12;8.13;;;5.47;;
4397;SDS011;2213;49.720;7.296;2023-03-01T04:46:43;9.50;;;5.87;;
4397;SDS011;2213;49.720;7.296;2023-03-01T04:49:13;19.00;;;9.43;;
4397;SDS011;2213;49.720;7.296;2023-03-01T04:51:42;13.60;;;7.80;;
4397;SDS011;2213;49.720;7.296;2023-03-01T04:54:12;10.13;;;5.27;;
4397;SDS011;2213;49.720;7.296;2023-03-01T04:56:41;14.37;;;5.93;;
4397;SDS011;2213;49.720;7.296;2023-03-01T04:59:12;11.17;;;5.17;;
4397;SDS011;2213;49.720;7.296;2023-03-01T05:01:41;7.40;;;5.60;;
4397;SDS011;2213;49.720;7.296;2023-03-01T05:04:12;9.20;;;4.93;;
4397;SDS011;2213;49.720;7.296;2023-03-01T05:06:42;15.60;;;6.00;;
4397;SDS011;2213;49.720;7.296;2023-03-01T05:09:11;9.50;;;5.40;;
4397;SDS011;2213;49.720;7.296;2023-03-01T05:11:42;11.73;;;5.57;;
4397;SDS011;2213;49.720;7.296;2023-03-01T05:14:12;13.80;;;5.30;;
4397;SDS011;2213;49.720;7.296;2023-03-01T05:16:43;11.70;;;6.60;;
4397;SDS011;2213;49.720;7.296;2023-03-01T05:19:13;11.53;;;6.10;;
4397;SDS011;2213;49.720;7.296;2023-03-01T05:21:42;23.90;;;7.63;;
4397;SDS011;2213;49.720;7.296;2023-03-01T05:24:33;19.70;;;8.73;;
4397;SDS011;2213;49.720;7.296;2023-03-01T05:27:04;14.33;;;6.83;;
4397;SDS011;2213;49.720;7.296;2023-03-01T05:29:34;12.67;;;7.60;;
4397;SDS011;2213;49.720;7.296;2023-03-01T05:32:07;14.87;;;6.90;;
4397;SDS011;2213;49.720;7.296;2023-03-01T05:34:43;13.43;;;6.95;;
4397;SDS011;2213;49.720;7.296;2023-03-01T05:37:14;16.03;;;6.57;;
4397;SDS011;2213;49.720;7.296;2023-03-01T05:39:44;6.37;;;5.10;;
4397;SDS011;2213;49.720;7.296;2023-03-01T05:42:16;14.13;;;6.03;;
4397;SDS011;2213;49.720;7.296;2023-03-01T05:44:46;7.83;;;4.83;;
4397;SDS011;2213;49.720;7.296;2023-03-01T05:47:17;8.60;;;5.00;;
4397;SDS011;2213;49.720;7.296;2023-03-01T05:49:48;10.10;;;6.13;;
4397;SDS011;2213;49.720;7.296;2023-03-01T05:52:17;9.10;;;4.83;;
4397;SDS011;2213;49.720;7.296;2023-03-01T05:54:45;12.57;;;5.50;;
4397;SDS011;2213;49.720;7.296;2023-03-01T05:57:15;13.43;;;5.90;;
4397;SDS011;2213;49.720;7.296;2023-03-01T05:59:45;8.43;;;6.13;;
4397;SDS011;2213;49.720;7.296;2023-03-01T06:02:16;10.33;;;6.20;;
4397;SDS011;2213;49.720;7.296;2023-03-01T06:04:47;11.57;;;6.50;;
4397;SDS011;2213;49.720;7.296;2023-03-01T06:07:17;10.60;;;5.93;;
4397;SDS011;2213;49.720;7.296;2023-03-01T06:09:46;10.60;;;6.20;;
4397;SDS011;2213;49.720;7.296;2023-03-01T06:12:16;8.67;;;5.57;;
4397;SDS011;2213;49.720;7.296;2023-03-01T06:14:46;7.83;;;5.93;;
4397;SDS011;2213;49.720;7.296;2023-03-01T06:17:18;10.73;;;6.37;;
4397;SDS011;2213;49.720;7.296;2023-03-01T06:19:47;12.20;;;6.30;;
4397;SDS011;2213;49.720;7.296;2023-03-01T06:22:18;11.50;;;6.90;;
4397;SDS011;2213;49.720;7.296;2023-03-01T06:24:47;19.53;;;7.17;;
4397;SDS011;2213;49.720;7.296;2023-03-01T06:27:17;13.20;;;7.30;;
4397;SDS011;2213;49.720;7.296;2023-03-01T06:29:46;10.97;;;7.07;;
4397;SDS011;2213;49.720;7.296;2023-03-01T06:32:17;12.83;;;6.40;;
4397;SDS011;2213;49.720;7.296;2023-03-01T06:34:46;11.73;;;6.27;;
4397;SDS011;2213;49.720;7.296;2023-03-01T06:37:15;8.97;;;6.33;;
4397;SDS011;2213;49.720;7.296;2023-03-01T06:39:45;12.43;;;6.90;;
4397;SDS011;2213;49.720;7.296;2023-03-01T06:42:14;16.90;;;6.30;;
4397;SDS011;2213;49.720;7.296;2023-03-01T06:44:43;11.53;;;6.77;;
4397;SDS011;2213;49.720;7.296;2023-03-01T06:47:13;15.77;;;7.27;;
4397;SDS011;2213;49.720;7.296;2023-03-01T06:49:45;13.63;;;6.80;;
4397;SDS011;2213;49.720;7.296;2023-03-01T06:52:15;16.10;;;7.40;;
4397;SDS011;2213;49.720;7.296;2023-03-01T06:54:44;16.43;;;7.23;;
4397;SDS011;2213;49.720;7.296;2023-03-01T06:57:14;10.30;;;6.47;;
4397;SDS011;2213;49.720;7.296;2023-03-01T06:59:44;13.17;;;6.50;;
4397;SDS011;2213;49.720;7.296;2023-03-01T07:02:15;23.77;;;7.47;;
4397;SDS011;2213;49.720;7.296;2023-03-01T07:04:49;12.90;;;6.80;;
4397;SDS011;2213;49.720;7.296;2023-03-01T07:07:18;12.83;;;6.53;;
4397;SDS011;2213;49.720;7.296;2023-03-01T07:09:49;12.10;;;7.10;;
4397;SDS011;2213;49.720;7.296;2023-03-01T07:12:20;12.43;;;7.47;;
4397;SDS011;2213;49.720;7.296;2023-03-01T07:14:50;13.20;;;6.73;;
4397;SDS011;2213;49.720;7.296;2023-03-01T07:17:20;13.40;;;7.70;;
4397;SDS011;2213;49.720;7.296;2023-03-01T07:19:51;12.20;;;6.60;;
4397;SDS011;2213;49.720;7.296;2023-03-01T07:22:21;15.07;;;7.77;;
4397;SDS011;2213;49.720;7.296;2023-03-01T07:24:52;15.47;;;7.83;;
4397;SDS011;2213;49.720;7.296;2023-03-01T07:27:23;11.20;;;7.13;;
4397;SDS011;2213;49.720;7.296;2023-03-01T07:29:52;16.03;;;6.97;;
4397;SDS011;2213;49.720;7.296;2023-03-01T07:32:22;13.07;;;6.77;;
4397;SDS011;2213;49.720;7.296;2023-03-01T07:34:53;16.17;;;7.83;;
4397;SDS011;2213;49.720;7.296;2023-03-01T07:37:23;12.57;;;7.50;;
4397;SDS011;2213;49.720;7.296;2023-03-01T07:39:52;24.23;;;8.07;;
4397;SDS011;2213;49.720;7.296;2023-03-01T07:42:22;11.20;;;7.00;;
4397;SDS011;2213;49.720;7.296;2023-03-01T07:44:51;12.37;;;6.50;;
4397;SDS011;2213;49.720;7.296;2023-03-01T07:47:22;13.23;;;7.40;;
4397;SDS011;2213;49.720;7.296;2023-03-01T07:49:53;11.80;;;7.17;;
4397;SDS011;2213;49.720;7.296;2023-03-01T07:52:23;11.67;;;7.00;;
4397;SDS011;2213;49.720;7.296;2023-03-01T07:54:53;14.57;;;7.93;;
4397;SDS011;2213;49.720;7.296;2023-03-01T07:57:23;13.23;;;7.07;;
4397;SDS011;2213;49.720;7.296;2023-03-01T07:59:54;12.90;;;8.07;;
4397;SDS011;2213;49.720;7.296;2023-03-01T08:02:24;18.77;;;8.40;;
4397;SDS011;2213;49.720;7.296;2023-03-01T08:04:56;13.20;;;7.70;;
4397;SDS011;2213;49.720;7.296;2023-03-01T08:07:27;13.30;;;8.07;;
4397;SDS011;2213;49.720;7.296;2023-03-01T08:09:56;11.93;;;8.10;;
4397;SDS011;2213;49.720;7.296;2023-03-01T08:12:26;14.63;;;7.23;;
4397;SDS011;2213;49.720;7.296;2023-03-01T08:14:55;12.13;;;7.30;;
4397;SDS011;2213;49.720;7.296;2023-03-01T08:17:25;15.83;;;8.57;;
4397;SDS011;2213;49.720;7.296;2023-03-01T08:19:56;18.47;;;7.60;;
4397;SDS011;2213;49.720;7.296;2023-03-01T08:22:26;15.50;;;7.67;;
4397;SDS011;2213;49.720;7.296;2023-03-01T08:24:56;12.87;;;7.20;;
4397;SDS011;2213;49.720;7.296;2023-03-01T08:27:26;16.07;;;7.77;;
4397;SDS011;2213;49.720;7.296;2023-03-01T08:29:56;16.37;;;8.17;;
4397;SDS011;2213;49.720;7.296;2023-03-01T08:32:26;11.47;;;7.10;;
4397;SDS011;2213;49.720;7.296;2023-03-01T08:34:56;11.87;;;6.77;;
4397;SDS011;2213;49.720;7.296;2023-03-01T08:37:25;11.07;;;7.20;;
4397;SDS011;2213;49.720;7.296;2023-03-01T08:39:57;14.10;;;7.93;;
4397;SDS011;2213;49.720;7.296;2023-03-01T08:42:28;18.33;;;8.40;;
4397;SDS011;2213;49.720;7.296;2023-03-01T08:44:58;16.70;;;8.70;;
4397;SDS011;2213;49.720;7.296;2023-03-01T08:47:29;17.17;;;7.80;;
4397;SDS011;2213;49.720;7.296;2023-03-01T08:50:02;13.93;;;7.40;;
4397;SDS011;2213;49.720;7.296;2023-03-01T08:52:33;15.50;;;8.00;;
4397;SDS011;2213;49.720;7.296;2023-03-01T08:55:04;11.63;;;7.17;;
4397;SDS011;2213;49.720;7.296;2023-03-01T08:57:37;12.77;;;7.40;;
4397;SDS011;2213;49.720;7.296;2023-03-01T09:00:07;17.60;;;8.10;;
4397;SDS011;2213;49.720;7.296;2023-03-01T09:02:41;12.97;;;6.80;;
4397;SDS011;2213;49.720;7.296;2023-03-01T09:05:12;13.17;;;7.20;;
4397;SDS011;2213;49.720;7.296;2023-03-01T09:07:45;13.53;;;7.63;;
4397;SDS011;2213;49.720;7.296;2023-03-01T09:10:15;9.30;;;6.10;;
4397;SDS011;2213;49.720;7.296;2023-03-01T09:12:45;17.60;;;8.27;;
4397;SDS011;2213;49.720;7.296;2023-03-01T09:15:16;14.73;;;6.70;;
4397;SDS011;2213;49.720;7.296;2023-03-01T09:17:45;14.47;;;7.83;;
4397;SDS011;2213;49.720;7.296;2023-03-01T09:20:17;13.63;;;7.20;;
4397;SDS011;2213;49.720;7.296;2023-03-01T09:22:47;19.13;;;9.27;;
4397;SDS011;2213;49.720;7.296;2023-03-01T09:25:16;10.33;;;6.83;;
4397;SDS011;2213;49.720;7.296;2023-03-01T09:27:47;13.30;;;7.20;;
4397;SDS011;2213;49.720;7.296;2023-03-01T09:30:20;13.10;;;6.47;;
4397;SDS011;2213;49.720;7.296;2023-03-01T09:32:51;20.07;;;8.37;;
4397;SDS011;2213;49.720;7.296;2023-03-01T09:35:23;15.13;;;7.30;;
4397;SDS011;2213;49.720;7.296;2023-03-01T09:37:52;14.63;;;8.37;;
4397;SDS011;2213;49.720;7.296;2023-03-01T09:40:23;15.10;;;7.87;;
4397;SDS011;2213;49.720;7.296;2023-03-01T09:42:58;12.03;;;6.90;;
4397;SDS011;2213;49.720;7.296;2023-03-01T09:45:43;16.13;;;8.27;;
4397;SDS011;2213;49.720;7.296;2023-03-01T09:48:19;14.77;;;7.13;;
4397;SDS011;2213;49.720;7.296;2023-03-01T09:50:55;15.10;;;8.13;;
4397;SDS011;2213;49.720;7.296;2023-03-01T09:53:30;19.47;;;7.67;;
4397;SDS011;2213;49.720;7.296;2023-03-01T09:56:03;14.87;;;6.80;;
4397;SDS011;2213;49.720;7.296;2023-03-01T09:58:47;18.27;;;9.43;;
4397;SDS011;2213;49.720;7.296;2023-03-01T10:01:28;17.00;;;7.20;;
4397;SDS011;2213;49.720;7.296;2023-03-01T10:04:11;19.33;;;9.60;;
4397;SDS011;2213;49.720;7.296;2023-03-01T10:07:01;21.73;;;6.80;;
4397;SDS011;2213;49.720;7.296;2023-03-01T10:09:49;13.73;;;7.00;;
4397;SDS011;2213;49.720;7.296;2023-03-01T10:12:19;18.20;;;8.73;;
4397;SDS011;2213;49.720;7.296;2023-03-01T10:14:55;17.93;;;7.83;;
4397;SDS011;2213;49.720;7.296;2023-03-01T10:17:34;15.97;;;7.97;;
4397;SDS011;2213;49.720;7.296;2023-03-01T10:20:13;11.63;;;6.60;;
4397;SDS011;2213;49.720;7.296;2023-03-01T10:22:52;12.87;;;7.30;;
4397;SDS011;2213;49.720;7.296;2023-03-01T10:25:25;19.67;;;9.73;;
4397;SDS011;2213;49.720;7.296;2023-03-01T10:28:15;13.77;;;8.83;;
4397;SDS011;2213;49.720;7.296;2023-03-01T10:30:48;11.87;;;7.27;;
4397;SDS011;2213;49.720;7.296;2023-03-01T10:33:21;17.47;;;9.50;;
4397;SDS011;2213;49.720;7.296;2023-03-01T10:35:55;18.30;;;9.40;;
4397;SDS011;2213;49.720;7.296;2023-03-01T10:38:26;18.27;;;8.50;;
4397;SDS011;2213;49.720;7.296;2023-03-01T10:41:04;11.50;;;7.40;;
4397;SDS011;2213;49.720;7.296;2023-03-01T10:43:41;14.77;;;7.20;;
4397;SDS011;2213;49.720;7.296;2023-03-01T10:46:23;15.00;;;8.30;;
4397;SDS011;2213;49.720;7.296;2023-03-01T10:49:05;18.40;;;8.40;;
4397;SDS011;2213;49.720;7.296;2023-03-01T10:51:45;25.83;;;9.53;;
4397;SDS011;2213;49.720;7.296;2023-03-01T10:54:18;10.10;;;7.23;;
4397;SDS011;2213;49.720;7.296;2023-03-01T10:56:54;15.93;;;7.60;;
4397;SDS011;2213;49.720;7.296;2023-03-01T10:59:27;17.67;;;8.37;;
4397;SDS011;2213;49.720;7.296;2023-03-01T11:02:04;21.00;;;9.60;;
4397;SDS011;2213;49.720;7.296;2023-03-01T11:04:58;11.90;;;8.00;;
4397;SDS011;2213;49.720;7.296;2023-03-01T11:07:29;26.53;;;8.80;;
4397;SDS011;2213;49.720;7.296;2023-03-01T11:10:01;15.07;;;8.70;;
4397;SDS011;2213;49.720;7.296;2023-03-01T11:12:44;19.67;;;8.00;;
4397;SDS011;2213;49.720;7.296;2023-03-01T11:15:19;15.80;;;7.57;;
4397;SDS011;2213;49.720;7.296;2023-03-01T11:17:53;12.27;;;6.73;;
4397;SDS011;2213;49.720;7.296;2023-03-01T11:20:39;14.50;;;8.13;;
4397;SDS011;2213;49.720;7.296;2023-03-01T11:23:10;14.50;;;8.80;;
4397;SDS011;2213;49.720;7.296;2023-03-01T11:25:54;17.63;;;8.70;;
4397;SDS011;2213;49.720;7.296;2023-03-01T11:28:27;16.50;;;8.70;;
4397;SDS011;2213;49.720;7.296;2023-03-01T11:30:58;13.80;;;6.90;;
4397;SDS011;2213;49.720;7.296;2023-03-01T11:33:37;13.77;;;8.23;;
4397;SDS011;2213;49.720;7.296;2023-03-01T11:36:18;13.20;;;7.50;;
4397;SDS011;2213;49.720;7.296;2023-03-01T11:39:02;14.83;;;8.67;;
4397;SDS011;2213;49.720;7.296;2023-03-01T11:41:49;13.10;;;8.33;;
4397;SDS011;2213;49.720;7.296;2023-03-01T11:44:44;13.10;;;8.47;;
4397;SDS011;2213;49.720;7.296;2023-03-01T11:47:21;13.47;;;8.40;;
4397;SDS011;2213;49.720;7.296;2023-03-01T11:50:15;12.50;;;7.63;;
4397;SDS011;2213;49.720;7.296;2023-03-01T11:52:59;13.33;;;7.50;;
4397;SDS011;2213;49.720;7.296;2023-03-01T11:56:03;13.50;;;7.50;;
4397;SDS011;2213;49.720;7.296;2023-03-01T12:05:42;14.03;;;7.77;;
4397;SDS011;2213;49.720;7.296;2023-03-01T12:08:56;18.80;;;8.97;;
4397;SDS011;2213;49.720;7.296;2023-03-01T12:11:50;14.37;;;7.80;;
4397;SDS011;2213;49.720;7.296;2023-03-01T12:14:57;13.33;;;7.63;;
4397;SDS011;2213;49.720;7.296;2023-03-01T12:18:11;13.70;;;8.10;;
4397;SDS011;2213;49.720;7.296;2023-03-01T12:21:12;14.67;;;8.13;;
4397;SDS011;2213;49.720;7.296;2023-03-01T12:24:15;15.33;;;8.53;;
4397;SDS011;2213;49.720;7.296;2023-03-01T12:27:18;14.57;;;8.13;;
4397;SDS011;2213;49.720;7.296;2023-03-01T12:30:28;19.10;;;8.83;;
4397;SDS011;2213;49.720;7.296;2023-03-01T12:33:18;16.67;;;8.23;;
4397;SDS011;2213;49.720;7.296;2023-03-01T12:39:14;13.80;;;8.40;;
4397;SDS011;2213;49.720;7.296;2023-03-01T12:42:12;15.77;;;7.23;;
4397;SDS011;2213;49.720;7.296;2023-03-01T12:45:02;15.50;;;8.00;;
4397;SDS011;2213;49.720;7.296;2023-03-01T12:47:58;14.73;;;8.47;;
4397;SDS011;2213;49.720;7.296;2023-03-01T12:50:51;12.70;;;7.80;;
4397;SDS011;2213;49.720;7.296;2023-03-01T12:53:24;13.03;;;7.90;;
4397;SDS011;2213;49.720;7.296;2023-03-01T12:55:58;11.03;;;7.07;;
4397;SDS011;2213;49.720;7.296;2023-03-01T12:58:34;17.63;;;8.80;;
4397;SDS011;2213;49.720;7.296;2023-03-01T13:01:22;14.10;;;7.80;;
4397;SDS011;2213;49.720;7.296;2023-03-01T13:07:12;14.17;;;7.57;;
4397;SDS011;2213;49.720;7.296;2023-03-01T13:09:55;15.27;;;7.93;;
4397;SDS011;2213;49.720;7.296;2023-03-01T13:12:46;14.87;;;7.93;;
4397;SDS011;2213;49.720;7.296;2023-03-01T13:15:31;13.70;;;8.40;;
4397;SDS011;2213;49.720;7.296;2023-03-01T13:18:28;14.47;;;6.90;;
4397;SDS011;2213;49.720;7.296;2023-03-01T13:21:02;12.67;;;7.73;;
4397;SDS011;2213;49.720;7.296;2023-03-01T13:23:34;15.43;;;8.73;;
4397;SDS011;2213;49.720;7.296;2023-03-01T13:26:10;10.23;;;6.80;;
4397;SDS011;2213;49.720;7.296;2023-03-01T13:28:53;10.13;;;6.40;;
4397;SDS011;2213;49.720;7.296;2023-03-01T13:34:44;14.00;;;6.53;;
4397;SDS011;2213;49.720;7.296;2023-03-01T13:37:25;13.33;;;7.50;;
4397;SDS011;2213;49.720;7.296;2023-03-01T13:40:04;13.20;;;7.30;;
4397;SDS011;2213;49.720;7.296;2023-03-01T13:43:29;13.10;;;7.07;;
4397;SDS011;2213;49.720;7.296;2023-03-01T13:46:02;13.93;;;7.27;;
4397;SDS011;2213;49.720;7.296;2023-03-01T13:48:44;10.00;;;5.83;;
4397;SDS011;2213;49.720;7.296;2023-03-01T13:51:20;11.47;;;6.50;;
4397;SDS011;2213;49.720;7.296;2023-03-01T13:53:56;14.80;;;7.73;;
4397;SDS011;2213;49.720;7.296;2023-03-01T13:56:27;12.80;;;7.67;;
4397;SDS011;2213;49.720;7.296;2023-03-01T13:59:04;12.13;;;6.77;;
4397;SDS011;2213;49.720;7.296;2023-03-01T14:01:41;10.80;;;6.63;;
4397;SDS011;2213;49.720;7.296;2023-03-01T14:04:18;13.30;;;7.63;;
4397;SDS011;2213;49.720;7.296;2023-03-01T14:06:51;9.80;;;6.13;;
4397;SDS011;2213;49.720;7.296;2023-03-01T14:09:39;12.30;;;7.83;;
4397;SDS011;2213;49.720;7.296;2023-03-01T14:15:14;14.10;;;8.27;;
4397;SDS011;2213;49.720;7.296;2023-03-01T14:17:55;10.57;;;7.27;;
4397;SDS011;2213;49.720;7.296;2023-03-01T14:20:55;15.57;;;8.00;;
4397;SDS011;2213;49.720;7.296;2023-03-01T14:23:25;13.10;;;8.10;;
4397;SDS011;2213;49.720;7.296;2023-03-01T14:25:58;15.50;;;7.20;;
4397;SDS011;2213;49.720;7.296;2023-03-01T14:28:28;14.00;;;9.00;;
4397;SDS011;2213;49.720;7.296;2023-03-01T14:31:01;15.93;;;8.83;;
4397;SDS011;2213;49.720;7.296;2023-03-01T14:33:31;14.43;;;8.13;;
4397;SDS011;2213;49.720;7.296;2023-03-01T14:36:04;17.20;;;8.67;;
4397;SDS011;2213;49.720;7.296;2023-03-01T14:38:38;15.20;;;8.70;;
4397;SDS011;2213;49.720;7.296;2023-03-01T14:41:12;13.40;;;8.27;;
4397;SDS011;2213;49.720;7.296;2023-03-01T14:43:45;16.73;;;7.53;;
4397;SDS011;2213;49.720;7.296;2023-03-01T14:46:19;13.77;;;8.20;;
4397;SDS011;2213;49.720;7.296;2023-03-01T14:48:53;15.70;;;7.73;;
4397;SDS011;2213;49.720;7.296;2023-03-01T14:51:29;17.23;;;8.37;;
4397;SDS011;2213;49.720;7.296;2023-03-01T14:54:04;14.97;;;7.97;;
4397;SDS011;2213;49.720;7.296;2023-03-01T14:56:50;13.00;;;7.20;;
4397;SDS011;2213;49.720;7.296;2023-03-01T14:59:23;10.57;;;6.63;;
4397;SDS011;2213;49.720;7.296;2023-03-01T15:01:53;12.23;;;7.90;;
4397;SDS011;2213;49.720;7.296;2023-03-01T15:04:26;20.30;;;8.20;;
4397;SDS011;2213;49.720;7.296;2023-03-01T15:06:57;13.60;;;8.43;;
4397;SDS011;2213;49.720;7.296;2023-03-01T15:09:32;18.00;;;7.53;;
4397;SDS011;2213;49.720;7.296;2023-03-01T15:12:25;9.37;;;6.80;;
4397;SDS011;2213;49.720;7.296;2023-03-01T15:15:30;10.77;;;6.87;;
4397;SDS011;2213;49.720;7.296;2023-03-01T15:18:14;9.73;;;6.80;;
4397;SDS011;2213;49.720;7.296;2023-03-01T15:20:48;8.50;;;5.87;;
4397;SDS011;2213;49.720;7.296;2023-03-01T15:23:22;11.93;;;7.03;;
4397;SDS011;2213;49.720;7.296;2023-03-01T15:25:55;10.73;;;6.40;;
4397;SDS011;2213;49.720;7.296;2023-03-01T15:28:29;11.93;;;6.27;;
4397;SDS011;2213;49.720;7.296;2023-03-01T15:31:18;11.07;;;6.10;;
4397;SDS011;2213;49.720;7.296;2023-03-01T15:33:51;16.23;;;6.83;;
4397;SDS011;2213;49.720;7.296;2023-03-01T15:36:39;8.90;;;5.10;;
4397;SDS011;2213;49.720;7.296;2023-03-01T15:39:30;11.60;;;6.00;;
4397;SDS011;2213;49.720;7.296;2023-03-01T15:42:36;12.13;;;5.87;;
4397;SDS011;2213;49.720;7.296;2023-03-01T15:45:10;9.47;;;5.40;;
4397;SDS011;2213;49.720;7.296;2023-03-01T15:47:50;7.33;;;5.13;;
4397;SDS011;2213;49.720;7.296;2023-03-01T15:50:25;9.60;;;6.17;;
4397;SDS011;2213;49.720;7.296;2023-03-01T15:52:57;34.63;;;7.40;;
4397;SDS011;2213;49.720;7.296;2023-03-01T15:55:29;8.30;;;5.50;;
4397;SDS011;2213;49.720;7.296;2023-03-01T15:58:00;15.63;;;6.57;;
4397;SDS011;2213;49.720;7.296;2023-03-01T16:00:36;11.77;;;6.10;;
4397;SDS011;2213;49.720;7.296;2023-03-01T16:03:23;13.37;;;6.47;;
4397;SDS011;2213;49.720;7.296;2023-03-01T16:05:52;25.17;;;8.30;;
4397;SDS011;2213;49.720;7.296;2023-03-01T16:08:21;11.13;;;6.67;;
4397;SDS011;2213;49.720;7.296;2023-03-01T16:10:51;9.07;;;5.00;;